Flight Track Log - Related Links

Times and Time Zones

All times are in EDT time to prevent confusion due to time zone crossing. See the N867DS flight status page for this flight to view local times or setup timezone preferences in your user account.

Time Position Orientation Groundspeed Altitude Reporting Facility
EDT Latitude Longitude Course Direction KTS MPH feet Rate Location/Type
Sun 09:49:08 PM 27.0500 -82.3333 105° East 73 84 3,500  Level Tampa TRACON
Sun 09:50:08 PM 27.0425 -82.3019 105° East 77 89 3,600 50 Climbing Miami Center
Sun 09:51:08 PM 27.0400 -82.2631 94° East 98 113 3,600 -49 Level Miami Center
Sun 09:52:10 PM 27.0311 -82.2203 103° East 120 138 3,500 -50 Descending Miami Center
Sun 09:53:08 PM 27.0203 -82.1803 107° East 133 153 3,500  Level Miami Center
Sun 09:54:10 PM 27.0108 -82.1422 106° East 133 153 3,500  Level Miami Center
Sun 09:55:11 PM 27.0008 -82.1014 105° East 133 153 3,500  Level Miami Center
Sun 09:56:13 PM 26.9911 -82.0606 105° East 130 150 3,500  Level Miami Center
Sun 09:57:14 PM 26.9844 -82.0214 101° East 130 150 3,500  Level Miami Center
Sun 09:58:16 PM 26.9764 -81.9819 103° East 130 150 3,500  Level Miami Center
Sun 09:59:16 PM 26.9669 -81.9394 104° East 131 151 3,500  Level Miami Center
Sun 10:00:17 PM 26.9542 -81.8997 110° East 132 152 3,500  Level Miami Center
Sun 10:01:16 PM 26.9436 -81.8594 106° East 136 157 3,500  Level Miami Center
Sun 10:02:17 PM 26.9325 -81.8200 108° East 136 157 3,500  Level Miami Center
Sun 10:03:20 PM 26.9208 -81.7767 107° East 136 157 3,500  Level Miami Center
Sun 10:04:20 PM 26.9086 -81.7369 109° East 136 157 3,500  Level Miami Center
Sun 10:05:22 PM 26.8969 -81.6969 108° East 136 157 3,500  Level Miami Center
Sun 10:06:22 PM 26.8892 -81.6564 102° East 136 157 3,500 50 Level Miami Center
Sun 10:07:21 PM 26.8789 -81.6142 105° East 133 153 3,600 295 Climbing Miami Center
Sun 10:08:24 PM 26.8731 -81.5803 101° East 112 129 4,100 488 Climbing Miami Center
Sun 10:09:24 PM 26.8692 -81.5492 98° East 106 122 4,600 446 Climbing Miami Center
Sun 10:10:25 PM 26.8644 -81.5181 100° East 105 121 5,000 443 Climbing Miami Center
Sun 10:11:26 PM 26.8575 -81.4825 102° East 107 123 5,500 246 Climbing Miami Center
Sun 10:12:27 PM 26.8514 -81.4439 100° East 127 146 5,500  Level Miami Center
Sun 10:13:28 PM 26.8450 -81.4025 100° East 136 157 5,500  Level Miami Center
Sun 10:14:28 PM 26.8375 -81.3558 100° East 138 159 5,500  Level Miami Center
Sun 10:15:27 PM 26.8269 -81.3156 106° East 138 159 5,500  Level Miami Center
Sun 10:16:30 PM 26.8161 -81.2739 106° East 139 160 5,500  Level Miami Center
Sun 10:17:31 PM 26.8050 -81.2322 107° East 141 162 5,500  Level Miami Center
Sun 10:18:32 PM 26.7919 -81.1886 109° East 139 160 5,500  Level Miami Center
Sun 10:19:31 PM 26.7794 -81.1511 110° East 132 152 5,500  Level Miami Center
Sun 10:20:33 PM 26.7667 -81.1108 110° East 137 158 5,500  Level Miami Center
Sun 10:21:33 PM 26.7586 -81.0703 103° East 139 160 5,500  Level Miami Center
Sun 10:22:34 PM 26.7503 -81.0264 102° East 139 160 5,500  Level Miami Center
Sun 10:23:34 PM 26.7400 -80.9828 105° East 139 160 5,500  Level Miami Center
Sun 10:24:36 PM 26.7339 -80.9381 99° East 139 160 5,500  Level Miami Center
Sun 10:25:37 PM 26.7278 -80.8972 100° East 139 160 5,500  Level Miami Center
Sun 10:26:37 PM 26.7258 -80.8511 93° East 140 161 5,500  Level Miami Center
Sun 10:27:38 PM 26.7289 -80.8075 86° East 141 162 5,500  Level Miami Center
Sun 10:28:38 PM 26.7356 -80.7644 80° East 139 160 5,500  Level Miami Center
Sun 10:29:38 PM 26.7442 -80.7225 77° East 135 155 5,500  Level Miami Center
Sun 10:30:40 PM 26.7522 -80.6814 78° East 137 158 5,500  Level Miami Center
Sun 10:31:42 PM 26.7611 -80.6403 76° East 136 157 5,500  Level Miami Center
Sun 10:32:42 PM 26.7697 -80.5956 78° East 137 158 5,500  Level Miami Center
Sun 10:33:42 PM 26.7786 -80.5550 76° East 136 157 5,500 -50 Level Miami Center
Sun 10:34:42 PM 26.7867 -80.5142 78° East 136 157 5,400 -244 Descending Miami Center
Sun 10:35:45 PM 26.7947 -80.4758 77° East 134 154 5,000 -339 Descending Miami Center
Sun 10:36:46 PM 26.8033 -80.4336 77° East 131 151 4,700 -295 Descending Miami Center
Sun 10:38:00 PM 26.8193 -80.3855 85° East  Level FlightAware Approximate
Sun 10:45:00 PM 26.8333 -80.2167 85° East  Level FlightAware Approximate
Sun 10:46:00 PM 26.8459 -80.2223 338° Northwest  Level Estimated
Sun 10:47:00 PM 26.8459 -80.2223 85° East  Level Estimated
Sun 10:48:00 PM 26.8459 -80.2223 North  Level Estimated
Sun 10:49:00 PM 26.8459 -80.2223 85° East  Level Estimated

Login

Don't have an account? Register now (free) for customized features, flight alerts, and more!